createdAt,value
2023-03-13T00:02:05.254Z,19021.31
2023-03-13T00:04:33.402Z,18996.91
2023-03-13T00:07:01.567Z,18980.66
2023-03-13T00:09:29.815Z,19000.97
2023-03-13T00:11:58.234Z,18988.78
2023-03-13T00:14:26.321Z,19017.25
2023-03-13T00:16:55.795Z,19049.75
2023-03-13T00:19:23.921Z,19039.59
2023-03-13T00:21:52.062Z,19013.16
2023-03-13T00:24:20.359Z,19021.31
2023-03-13T00:26:48.480Z,19015.19
2023-03-13T00:29:16.594Z,19011.13
2023-03-13T00:31:44.770Z,19033.50
2023-03-13T00:34:14.255Z,19037.56
2023-03-13T00:36:42.371Z,19013.16
2023-03-13T00:39:11.138Z,19025.38
2023-03-13T00:41:39.460Z,19029.44
2023-03-13T00:44:08.228Z,19015.19
2023-03-13T00:46:37.093Z,19033.50
2023-03-13T00:49:05.987Z,18988.78
2023-03-13T00:51:36.858Z,19045.69
2023-03-13T00:54:05.403Z,19017.25
2023-03-13T00:56:33.547Z,19017.25
2023-03-13T00:59:02.368Z,19009.09
2023-03-13T01:01:33.936Z,19029.44
2023-03-13T01:04:04.716Z,19019.28
2023-03-13T01:06:37.810Z,19110.72
2023-03-13T01:09:07.821Z,19059.91
2023-03-13T01:11:39.735Z,19066.00
2023-03-13T01:14:11.169Z,19070.06
2023-03-13T01:16:40.851Z,19084.28
2023-03-13T01:19:13.316Z,19092.41
2023-03-13T01:21:45.641Z,19084.28
2023-03-13T01:24:13.989Z,19068.03
2023-03-13T01:26:42.465Z,19096.47
2023-03-13T01:29:10.565Z,19108.69
2023-03-13T01:31:38.783Z,19122.91
2023-03-13T01:34:07.843Z,19126.97
2023-03-13T01:36:38.627Z,19090.38
2023-03-13T01:39:08.749Z,19086.31
2023-03-13T01:41:38.742Z,19118.84
2023-03-13T01:44:07.064Z,19096.47
2023-03-13T01:46:35.215Z,19080.22
2023-03-13T01:49:08.779Z,19074.13
2023-03-13T01:51:43.198Z,19106.66
2023-03-13T01:54:17.886Z,19118.84
2023-03-13T01:56:51.313Z,19135.09
2023-03-13T01:59:26.346Z,19104.59
2023-03-13T02:02:01.229Z,19096.47
2023-03-13T02:04:36.596Z,19118.84
2023-03-13T02:07:14.205Z,19124.94
2023-03-13T02:09:51.301Z,19151.34
2023-03-13T02:12:31.024Z,19124.94
2023-03-13T02:15:03.934Z,19108.69
2023-03-13T02:17:34.842Z,19181.81
2023-03-13T02:20:03.841Z,19157.44
2023-03-13T02:22:44.366Z,19129.00
2023-03-13T02:25:33.571Z,19163.53
2023-03-13T02:28:08.327Z,19183.84
2023-03-13T02:30:36.666Z,19106.66
2023-03-13T02:33:05.529Z,19171.66
2023-03-13T02:35:36.630Z,19167.59
2023-03-13T02:38:10.924Z,19163.53
2023-03-13T02:40:46.587Z,19165.56
2023-03-13T02:43:22.159Z,19175.72
2023-03-13T02:46:06.636Z,19194.03
2023-03-13T02:48:39.089Z,19185.88
2023-03-13T02:51:17.754Z,19185.88
2023-03-13T02:53:49.239Z,19189.97
2023-03-13T02:56:22.968Z,19159.47
2023-03-13T02:58:51.416Z,19194.03
2023-03-13T03:01:19.758Z,19145.25
2023-03-13T03:03:48.741Z,19151.34
2023-03-13T03:06:16.894Z,19167.59
2023-03-13T03:08:45.137Z,19204.19
2023-03-13T03:11:13.679Z,19161.50
2023-03-13T03:13:43.168Z,19181.81
2023-03-13T03:16:18.552Z,19163.53
2023-03-13T03:18:47.290Z,19216.38
2023-03-13T03:21:15.426Z,19185.88
2023-03-13T03:23:43.545Z,19189.97
2023-03-13T03:26:11.739Z,19220.44
2023-03-13T03:28:39.937Z,19206.22
2023-03-13T03:31:11.339Z,19200.13
2023-03-13T03:33:40.715Z,19196.06
2023-03-13T03:36:13.658Z,19210.28
2023-03-13T03:38:42.716Z,19218.41
2023-03-13T03:41:14.119Z,19200.13
2023-03-13T03:43:43.254Z,19198.09
2023-03-13T03:46:12.886Z,19202.16
2023-03-13T03:48:41.458Z,19204.19
2023-03-13T03:51:09.655Z,19200.13
2023-03-13T03:53:37.885Z,19169.63
2023-03-13T03:56:07.017Z,19222.47
2023-03-13T03:58:35.246Z,19244.81
2023-03-13T04:01:03.339Z,19250.91
2023-03-13T04:03:33.394Z,19271.25
2023-03-13T04:06:01.795Z,19269.22
2023-03-13T04:08:29.978Z,19238.72
2023-03-13T04:10:58.097Z,19236.69
2023-03-13T04:13:26.319Z,19242.78
2023-03-13T04:15:54.784Z,19228.56
2023-03-13T04:18:22.925Z,19212.31
2023-03-13T04:21:00.859Z,19248.88
2023-03-13T04:23:29.010Z,19236.69
2023-03-13T04:25:57.224Z,19216.38
2023-03-13T04:28:25.408Z,19187.91
2023-03-13T04:30:57.188Z,19222.47
2023-03-13T04:33:25.959Z,19216.38
2023-03-13T04:35:55.483Z,19244.81
2023-03-13T04:38:23.682Z,19257.00
2023-03-13T04:40:51.791Z,19208.25
2023-03-13T04:43:19.879Z,19192.00
2023-03-13T04:45:48.101Z,19171.66
2023-03-13T04:48:16.186Z,19161.50
2023-03-13T04:50:44.322Z,19196.06
2023-03-13T04:53:13.782Z,19200.13
2023-03-13T04:55:42.887Z,19185.88
2023-03-13T04:58:11.009Z,19212.31
2023-03-13T05:00:41.882Z,19202.16
2023-03-13T05:03:10.092Z,19210.28
2023-03-13T05:05:38.199Z,19204.19
2023-03-13T05:08:06.720Z,19151.34
2023-03-13T05:10:36.244Z,19187.91
2023-03-13T05:13:04.432Z,19187.91
2023-03-13T05:15:32.616Z,19189.97
2023-03-13T05:18:00.776Z,19206.22
2023-03-13T05:20:28.875Z,19187.91
2023-03-13T05:22:56.986Z,19218.41
2023-03-13T05:25:25.136Z,19194.03
2023-03-13T05:27:54.632Z,19173.69
2023-03-13T05:30:23.152Z,19250.91
2023-03-13T05:32:51.347Z,19222.47
2023-03-13T05:35:19.710Z,19214.34
2023-03-13T05:37:47.916Z,19238.72
2023-03-13T05:40:16.587Z,19187.91
2023-03-13T05:42:45.946Z,19206.22
2023-03-13T05:45:15.567Z,19236.69
2023-03-13T05:47:43.690Z,19196.06
2023-03-13T05:50:12.679Z,19226.53
2023-03-13T05:52:40.928Z,19214.34
2023-03-13T05:55:10.136Z,19220.44
2023-03-13T05:57:39.353Z,19214.34
2023-03-13T06:00:09.377Z,19242.78
2023-03-13T06:02:38.859Z,19228.56
2023-03-13T06:05:08.093Z,19244.81
2023-03-13T06:07:36.538Z,19214.34
2023-03-13T06:10:05.287Z,19218.41
2023-03-13T06:12:33.475Z,19232.63
2023-03-13T06:15:01.839Z,19222.47
2023-03-13T06:17:30.128Z,19198.09
2023-03-13T06:19:59.690Z,19212.31
2023-03-13T06:22:27.938Z,19206.22
2023-03-13T06:24:56.988Z,19181.81
2023-03-13T06:27:25.115Z,19181.81
2023-03-13T06:29:53.386Z,19177.75
2023-03-13T06:32:21.690Z,19155.41
2023-03-13T06:34:49.965Z,19183.84
2023-03-13T06:37:19.453Z,19183.84
2023-03-13T06:39:47.763Z,19175.72
2023-03-13T06:42:15.875Z,19204.19
2023-03-13T06:44:44.738Z,19175.72
2023-03-13T06:47:15.350Z,19181.81
2023-03-13T06:49:43.703Z,19198.09
2023-03-13T06:52:11.821Z,19210.28
2023-03-13T06:54:41.329Z,19192.00
2023-03-13T06:57:09.435Z,19189.97
2023-03-13T06:59:37.587Z,19192.00
2023-03-13T07:02:06.210Z,19167.59
2023-03-13T07:04:34.493Z,19204.19
2023-03-13T07:07:02.654Z,19226.53
2023-03-13T07:09:31.015Z,19220.44
2023-03-13T07:12:00.477Z,19196.06
2023-03-13T07:14:28.775Z,19216.38
2023-03-13T07:16:58.069Z,19250.91
2023-03-13T07:19:27.371Z,19250.91
2023-03-13T07:21:56.973Z,19305.78
2023-03-13T07:24:25.407Z,19287.50
2023-03-13T07:27:06.310Z,19317.97
2023-03-13T07:29:36.993Z,19301.72
2023-03-13T07:32:05.693Z,19281.41
2023-03-13T07:34:33.875Z,19336.25
2023-03-13T07:37:02.039Z,19372.84
2023-03-13T07:39:30.178Z,19354.56
2023-03-13T07:41:58.455Z,19356.59
2023-03-13T07:44:26.560Z,19338.28
2023-03-13T07:46:56.031Z,19346.44
2023-03-13T07:49:24.441Z,19326.09
2023-03-13T07:51:52.626Z,19356.59
2023-03-13T07:54:20.798Z,19364.72
2023-03-13T07:56:49.110Z,19387.06
2023-03-13T07:59:17.240Z,19395.19
2023-03-13T08:01:45.355Z,19374.88
2023-03-13T08:04:15.573Z,19366.75
2023-03-13T08:06:43.667Z,19389.09
2023-03-13T08:09:11.822Z,19419.59
2023-03-13T08:11:41.588Z,19395.19
2023-03-13T08:14:10.114Z,19452.09
2023-03-13T08:16:38.267Z,19395.19
2023-03-13T08:19:07.268Z,19399.25
2023-03-13T08:21:38.716Z,19397.22
2023-03-13T08:24:10.639Z,19364.72
2023-03-13T08:26:41.818Z,19399.25
2023-03-13T08:29:13.188Z,19376.91
2023-03-13T08:31:47.461Z,19383.00
2023-03-13T08:34:17.922Z,19401.28
2023-03-13T08:36:48.150Z,19364.72
2023-03-13T08:39:18.817Z,19362.69
2023-03-13T08:41:47.366Z,19370.81
2023-03-13T08:44:21.081Z,19326.09
2023-03-13T08:46:50.098Z,19389.09
2023-03-13T08:49:18.507Z,19362.69
2023-03-13T08:51:47.983Z,19352.53
2023-03-13T08:54:16.227Z,19344.41
2023-03-13T08:56:44.576Z,19326.09
2023-03-13T08:59:12.794Z,19352.53
2023-03-13T09:01:40.947Z,19350.50
2023-03-13T09:04:09.689Z,19376.91
2023-03-13T09:06:40.098Z,19374.88
2023-03-13T09:09:10.776Z,19326.09
2023-03-13T09:11:40.259Z,19393.16
2023-03-13T09:14:11.441Z,19403.31
2023-03-13T09:16:39.617Z,19336.25
2023-03-13T09:19:08.068Z,19393.16
2023-03-13T09:21:37.256Z,19407.38
2023-03-13T09:24:06.069Z,19413.47
2023-03-13T09:26:35.664Z,19391.13
2023-03-13T09:29:03.817Z,19415.50
2023-03-13T09:31:34.413Z,19395.19
2023-03-13T09:34:03.123Z,19421.63
2023-03-13T09:36:31.549Z,19466.31
2023-03-13T09:39:01.193Z,19450.06
2023-03-13T09:41:37.820Z,19460.22
2023-03-13T09:44:15.112Z,19496.81
2023-03-13T09:46:57.196Z,19529.31
2023-03-13T09:49:35.227Z,19500.88
2023-03-13T09:52:16.986Z,19511.03
2023-03-13T09:54:53.182Z,19519.16
2023-03-13T09:57:32.869Z,19559.81
2023-03-13T10:00:11.388Z,19529.31
2023-03-13T10:02:40.679Z,19525.25
2023-03-13T10:05:17.753Z,19545.56
2023-03-13T10:07:46.219Z,19529.31
2023-03-13T10:10:22.372Z,19574.03
2023-03-13T10:13:03.403Z,19515.09
2023-03-13T10:15:43.910Z,19557.78
2023-03-13T10:18:19.583Z,19557.78
2023-03-13T10:20:51.375Z,19543.53
2023-03-13T10:23:33.520Z,19533.38
2023-03-13T10:26:01.732Z,19527.28
2023-03-13T10:28:31.176Z,19529.31
2023-03-13T10:31:11.507Z,19543.53
2023-03-13T10:33:39.680Z,19504.94
2023-03-13T10:36:12.150Z,19569.97
2023-03-13T10:38:52.729Z,19517.13
2023-03-13T10:41:28.057Z,19549.63
2023-03-13T10:44:04.498Z,19563.88
2023-03-13T10:46:35.276Z,19553.72
2023-03-13T10:49:05.839Z,19594.34
2023-03-13T10:51:39.931Z,19572.00
2023-03-13T10:54:22.437Z,19590.28
2023-03-13T10:56:51.524Z,19612.63
2023-03-13T10:59:25.758Z,19618.75
2023-03-13T11:01:59.535Z,19632.97
2023-03-13T11:04:34.236Z,19665.47
2023-03-13T11:07:07.800Z,19679.72
2023-03-13T11:09:35.963Z,19683.78
2023-03-13T11:12:10.659Z,19726.44
2023-03-13T11:14:40.428Z,19746.78
2023-03-13T11:17:30.721Z,19813.84
2023-03-13T11:20:14.438Z,19781.31
2023-03-13T11:22:54.537Z,19815.88
2023-03-13T11:25:34.215Z,19793.50
2023-03-13T11:28:25.080Z,19821.97
2023-03-13T11:31:14.137Z,19811.81
2023-03-13T11:33:57.465Z,19824.00
2023-03-13T11:36:35.501Z,19826.03
2023-03-13T11:39:38.221Z,19824.00
2023-03-13T11:42:20.163Z,19874.81
2023-03-13T11:45:03.439Z,19880.91
2023-03-13T11:47:53.145Z,19866.69
2023-03-13T11:50:36.755Z,19870.75
2023-03-13T11:53:29.694Z,19895.13
2023-03-13T11:56:16.092Z,20029.28
2023-03-13T11:59:19.034Z,20063.81
2023-03-13T12:01:54.183Z,20061.78
2023-03-13T12:04:33.430Z,20116.66
2023-03-13T12:07:07.629Z,20126.84
2023-03-13T12:09:45.673Z,20151.22
2023-03-13T12:12:25.231Z,20141.06
2023-03-13T12:15:00.020Z,20159.34
2023-03-13T12:17:36.144Z,20110.56
2023-03-13T12:20:17.608Z,20102.44
2023-03-13T12:22:57.335Z,20122.78
2023-03-13T12:25:30.010Z,20169.53
2023-03-13T12:28:10.871Z,20250.81
2023-03-13T12:30:46.604Z,20250.81
2023-03-13T12:33:24.396Z,20189.84
2023-03-13T12:36:05.059Z,20210.16
2023-03-13T12:38:40.979Z,20181.72
2023-03-13T12:41:26.780Z,20197.97
2023-03-13T12:44:11.508Z,20153.25
2023-03-13T12:46:46.803Z,20130.91
2023-03-13T12:50:00.997Z,20130.91
2023-03-13T12:53:17.175Z,20155.28
2023-03-13T12:56:11.681Z,20171.56
2023-03-13T12:58:49.276Z,20122.78
2023-03-13T13:01:30.596Z,20067.88
2023-03-13T13:04:03.011Z,20063.81
2023-03-13T13:06:55.045Z,20104.47
2023-03-13T13:09:28.684Z,20078.06
2023-03-13T13:11:59.923Z,20086.19
2023-03-13T13:15:03.958Z,20027.25
2023-03-13T13:17:56.535Z,20008.94
2023-03-13T13:20:50.303Z,20019.13
2023-03-13T13:23:39.241Z,20019.13
2023-03-13T13:26:51.601Z,20025.22
2023-03-13T13:30:00.704Z,20025.22
2023-03-13T13:32:44.809Z,20049.59
2023-03-13T13:35:30.248Z,20063.81
2023-03-13T13:38:36.887Z,20057.72
2023-03-13T13:41:34.866Z,20061.78
2023-03-13T13:44:30.589Z,20059.75
2023-03-13T13:47:01.918Z,20057.72
2023-03-13T13:49:56.525Z,20037.41
2023-03-13T13:52:40.470Z,20027.25
2023-03-13T13:55:43.581Z,20106.50
2023-03-13T13:58:21.252Z,20080.09
2023-03-13T14:00:56.799Z,20114.63
2023-03-13T14:03:28.048Z,20100.41
2023-03-13T14:06:01.433Z,20130.91
2023-03-13T14:08:33.874Z,20102.44
2023-03-13T14:11:26.446Z,20104.47
2023-03-13T14:14:18.043Z,20134.97
2023-03-13T14:16:50.285Z,20147.16
2023-03-13T14:19:26.887Z,20181.72
2023-03-13T14:22:01.447Z,20187.81
2023-03-13T14:24:29.617Z,20208.13
2023-03-13T14:26:57.885Z,20193.91
2023-03-13T14:29:27.290Z,20159.34
2023-03-13T14:31:59.562Z,20124.81
2023-03-13T14:34:32.198Z,20078.06
2023-03-13T14:37:17.737Z,20057.72
2023-03-13T14:39:48.701Z,20098.38
2023-03-13T14:42:18.982Z,20025.22
2023-03-13T14:44:50.427Z,20013.00
2023-03-13T14:47:26.542Z,20037.41
2023-03-13T14:49:59.979Z,20061.78
2023-03-13T14:52:30.984Z,20037.41
2023-03-13T14:55:04.170Z,20035.38
2023-03-13T14:57:33.973Z,20082.13
2023-03-13T15:00:31.170Z,20043.50
2023-03-13T15:03:29.484Z,20104.47
2023-03-13T15:06:18.759Z,20074.00
2023-03-13T15:08:50.065Z,20147.16
2023-03-13T15:11:28.224Z,20092.28
2023-03-13T15:13:57.182Z,20076.03
2023-03-13T15:16:27.671Z,20100.41
2023-03-13T15:18:57.722Z,20112.59
2023-03-13T15:21:32.040Z,20102.44
2023-03-13T15:24:04.083Z,20110.56
2023-03-13T15:26:32.188Z,20120.75
2023-03-13T15:29:00.234Z,20061.78
2023-03-13T15:31:30.401Z,20041.47
2023-03-13T15:34:02.231Z,20065.84
2023-03-13T15:36:32.554Z,20021.16
2023-03-13T15:39:00.613Z,19998.78
2023-03-13T15:41:28.814Z,20013.00
2023-03-13T15:43:57.400Z,20004.88
2023-03-13T15:46:28.449Z,19978.47
2023-03-13T15:48:56.674Z,19972.38
2023-03-13T15:51:27.639Z,20008.94
2023-03-13T15:53:55.727Z,19956.09
2023-03-13T15:56:24.408Z,19937.81
2023-03-13T15:58:52.664Z,19992.69
2023-03-13T16:01:23.013Z,19988.63
2023-03-13T16:03:51.232Z,20004.88
2023-03-13T16:06:30.644Z,20002.84
2023-03-13T16:09:01.964Z,20021.16
2023-03-13T16:11:30.931Z,20049.59
2023-03-13T16:13:59.071Z,20043.50
2023-03-13T16:16:30.377Z,20061.78
2023-03-13T16:19:00.306Z,20078.06
2023-03-13T16:21:30.690Z,20021.16
2023-03-13T16:24:00.300Z,20057.72
2023-03-13T16:26:31.865Z,20065.84
2023-03-13T16:29:00.530Z,19988.63
2023-03-13T16:31:31.785Z,20027.25
2023-03-13T16:34:02.196Z,20053.66
2023-03-13T16:36:33.554Z,20000.81
2023-03-13T16:39:08.309Z,19974.41
2023-03-13T16:41:36.736Z,19956.09
2023-03-13T16:44:05.049Z,19939.84
2023-03-13T16:46:38.545Z,19976.44
2023-03-13T16:49:08.429Z,19968.31
2023-03-13T16:51:36.543Z,19921.56
2023-03-13T16:54:06.712Z,19919.53
2023-03-13T16:56:37.769Z,19984.56
2023-03-13T16:59:09.115Z,19915.47
2023-03-13T17:01:37.934Z,19882.94
2023-03-13T17:04:06.742Z,19897.16
2023-03-13T17:06:37.996Z,19817.91
2023-03-13T17:09:14.599Z,19860.59
2023-03-13T17:11:43.307Z,19909.34
2023-03-13T17:14:13.318Z,19903.25
2023-03-13T17:16:44.763Z,19868.72
2023-03-13T17:19:16.584Z,19830.09
2023-03-13T17:21:46.187Z,19838.22
2023-03-13T17:24:15.646Z,19854.50
2023-03-13T17:26:43.845Z,19821.97
2023-03-13T17:29:18.712Z,19838.22
2023-03-13T17:31:46.904Z,19838.22
2023-03-13T17:34:16.637Z,19826.03
2023-03-13T17:36:45.338Z,19797.59
2023-03-13T17:39:16.153Z,19815.88
2023-03-13T17:41:44.240Z,19785.38
2023-03-13T17:44:12.583Z,19807.75
2023-03-13T17:46:44.230Z,19789.44
2023-03-13T17:49:14.301Z,19767.09
2023-03-13T17:51:46.019Z,19809.78
2023-03-13T17:54:15.831Z,19821.97
2023-03-13T17:56:46.611Z,19803.69
2023-03-13T17:59:17.629Z,19862.63
2023-03-13T18:01:46.535Z,19891.06
2023-03-13T18:04:15.425Z,19854.50
2023-03-13T18:06:47.123Z,19868.72
2023-03-13T18:09:18.324Z,19874.81
2023-03-13T18:11:49.073Z,19895.13
2023-03-13T18:14:17.195Z,19882.94
2023-03-13T18:16:48.228Z,19846.34
2023-03-13T18:19:22.393Z,19909.34
2023-03-13T18:21:53.564Z,19876.84
2023-03-13T18:24:22.675Z,19897.16
2023-03-13T18:26:52.396Z,19901.22
2023-03-13T18:29:27.042Z,19927.66
2023-03-13T18:31:56.571Z,19972.38
2023-03-13T18:34:25.730Z,19954.06
2023-03-13T18:36:55.194Z,19958.13
2023-03-13T18:39:23.660Z,19984.56
2023-03-13T18:41:53.208Z,19917.50
2023-03-13T18:44:21.404Z,19947.97
2023-03-13T18:46:52.000Z,19931.72
2023-03-13T18:49:24.682Z,19931.72
2023-03-13T18:51:54.236Z,19950.00
2023-03-13T18:54:22.335Z,19947.97
2023-03-13T18:56:51.767Z,19915.47
2023-03-13T18:59:22.545Z,19943.91
2023-03-13T19:01:51.207Z,19915.47
2023-03-13T19:04:20.703Z,19903.25
2023-03-13T19:06:49.441Z,19850.41
2023-03-13T19:09:42.769Z,19864.66
2023-03-13T19:12:11.976Z,19809.78
2023-03-13T19:14:40.085Z,19799.63
2023-03-13T19:17:20.633Z,19819.94
2023-03-13T19:19:48.945Z,19815.88
2023-03-13T19:22:17.063Z,19824.00
2023-03-13T19:24:45.179Z,19813.84
2023-03-13T19:27:16.956Z,19789.44
2023-03-13T19:29:46.288Z,19783.34
2023-03-13T19:32:15.874Z,19815.88
2023-03-13T19:34:44.717Z,19832.13
2023-03-13T19:37:15.186Z,19805.72
2023-03-13T19:39:43.719Z,19791.47
2023-03-13T19:42:11.972Z,19758.97
2023-03-13T19:44:41.975Z,19734.56
2023-03-13T19:47:15.696Z,19740.69
2023-03-13T19:49:45.378Z,19726.44
2023-03-13T19:52:13.549Z,19761.00
2023-03-13T19:54:41.662Z,19730.50
2023-03-13T19:57:12.225Z,19758.97
2023-03-13T19:59:41.803Z,19732.53
2023-03-13T20:02:12.232Z,19726.44
2023-03-13T20:04:42.107Z,19675.63
2023-03-13T20:07:10.275Z,19752.88
2023-03-13T20:09:38.500Z,19716.28
2023-03-13T20:12:07.235Z,19698.00
2023-03-13T20:14:35.471Z,19675.63
2023-03-13T20:17:05.012Z,19710.19
2023-03-13T20:19:33.517Z,19714.25
2023-03-13T20:22:04.969Z,19657.34
2023-03-13T20:24:34.319Z,19665.47
2023-03-13T20:27:02.961Z,19661.41
2023-03-13T20:29:31.039Z,19651.25
2023-03-13T20:32:01.226Z,19681.75
2023-03-13T20:34:30.781Z,19669.53
2023-03-13T20:36:59.960Z,19657.34
2023-03-13T20:39:29.859Z,19687.84
2023-03-13T20:42:02.734Z,19663.44
2023-03-13T20:44:31.378Z,19708.16
2023-03-13T20:46:59.624Z,19702.06
2023-03-13T20:49:27.952Z,19746.78
2023-03-13T20:51:57.418Z,19754.91
2023-03-13T20:54:25.474Z,19726.44
2023-03-13T20:56:53.673Z,19712.22
2023-03-13T20:59:21.794Z,19724.41
2023-03-13T21:01:49.904Z,19710.19
2023-03-13T21:04:18.215Z,19720.34
2023-03-13T21:06:46.366Z,19714.25
2023-03-13T21:09:15.840Z,19693.94
2023-03-13T21:11:44.018Z,19728.47
2023-03-13T21:14:12.153Z,19716.28
2023-03-13T21:16:40.396Z,19691.91
2023-03-13T21:19:08.582Z,19732.53
2023-03-13T21:21:36.694Z,19681.75
2023-03-13T21:24:05.182Z,19687.84
2023-03-13T21:26:34.658Z,19643.13
2023-03-13T21:29:03.520Z,19667.50
2023-03-13T21:31:31.907Z,19649.22
2023-03-13T21:34:00.105Z,19632.97
2023-03-13T21:36:28.289Z,19657.34
2023-03-13T21:38:56.517Z,19630.94
2023-03-13T21:41:24.673Z,19620.78
2023-03-13T21:43:55.794Z,19622.81
2023-03-13T21:46:25.172Z,19620.78
2023-03-13T21:48:53.344Z,19598.41
2023-03-13T21:51:22.496Z,19606.53
2023-03-13T21:53:50.628Z,19567.94
2023-03-13T21:56:18.797Z,19549.63
2023-03-13T21:58:47.090Z,19549.63
2023-03-13T22:01:17.468Z,19535.41
2023-03-13T22:03:45.775Z,19545.56
2023-03-13T22:06:15.468Z,19525.25
2023-03-13T22:08:43.904Z,19482.56
2023-03-13T22:11:12.865Z,19482.56
2023-03-13T22:13:41.185Z,19490.72
2023-03-13T22:16:11.464Z,19472.41
2023-03-13T22:18:42.357Z,19460.22
2023-03-13T22:21:10.860Z,19452.09
2023-03-13T22:23:39.044Z,19425.69
2023-03-13T22:26:07.938Z,19435.84
2023-03-13T22:28:36.036Z,19423.66
2023-03-13T22:31:07.529Z,19437.88
2023-03-13T22:33:36.470Z,19439.91
2023-03-13T22:36:07.710Z,19393.16
2023-03-13T22:38:39.035Z,19423.66
2023-03-13T22:41:09.779Z,19427.72
2023-03-13T22:43:37.921Z,19415.50
2023-03-13T22:46:07.192Z,19437.88
2023-03-13T22:48:36.749Z,19383.00
2023-03-13T22:51:09.593Z,19415.50
2023-03-13T22:53:39.999Z,19415.50
2023-03-13T22:56:10.947Z,19383.00
2023-03-13T22:58:40.458Z,19350.50
2023-03-13T23:01:10.487Z,19387.06
2023-03-13T23:03:38.764Z,19399.25
2023-03-13T23:06:13.065Z,19380.97
2023-03-13T23:08:42.864Z,19399.25
2023-03-13T23:11:12.220Z,19405.34
2023-03-13T23:13:40.424Z,19387.06
2023-03-13T23:16:11.968Z,19399.25
2023-03-13T23:18:41.473Z,19383.00
2023-03-13T23:21:14.400Z,19362.69
2023-03-13T23:23:44.359Z,19370.81
2023-03-13T23:26:17.530Z,19387.06
2023-03-13T23:28:45.724Z,19366.75
2023-03-13T23:31:18.118Z,19378.94
2023-03-13T23:33:47.370Z,19395.19
2023-03-13T23:36:19.340Z,19405.34
2023-03-13T23:38:51.627Z,19380.97
2023-03-13T23:41:21.802Z,19366.75
2023-03-13T23:43:50.079Z,19354.56
2023-03-13T23:46:20.401Z,19403.31
2023-03-13T23:48:48.900Z,19378.94
2023-03-13T23:51:18.414Z,19346.44
2023-03-13T23:53:46.505Z,19370.81
2023-03-13T23:56:14.730Z,19376.91
2023-03-13T23:58:43.604Z,19393.16
